sensor_id;sensor_type;location;lat;lon;timestamp;P1;durP1;ratioP1;P2;durP2;ratioP2
13580;SDS011;6861;46.170;7.222;2023-04-06T00:00:11;2.90;;;2.38;;
13580;SDS011;6861;46.170;7.222;2023-04-06T00:02:40;6.60;;;2.67;;
13580;SDS011;6861;46.170;7.222;2023-04-06T00:05:09;2.78;;;2.33;;
13580;SDS011;6861;46.170;7.222;2023-04-06T00:07:37;3.00;;;2.20;;
13580;SDS011;6861;46.170;7.222;2023-04-06T00:10:06;3.30;;;2.40;;
13580;SDS011;6861;46.170;7.222;2023-04-06T00:12:35;4.55;;;2.83;;
13580;SDS011;6861;46.170;7.222;2023-04-06T00:15:04;3.03;;;2.22;;
13580;SDS011;6861;46.170;7.222;2023-04-06T00:17:34;4.32;;;2.50;;
13580;SDS011;6861;46.170;7.222;2023-04-06T00:20:03;2.85;;;2.25;;
13580;SDS011;6861;46.170;7.222;2023-04-06T00:22:33;3.85;;;2.60;;
13580;SDS011;6861;46.170;7.222;2023-04-06T00:25:01;3.38;;;2.35;;
13580;SDS011;6861;46.170;7.222;2023-04-06T00:27:30;4.40;;;2.50;;
13580;SDS011;6861;46.170;7.222;2023-04-06T00:29:58;7.07;;;2.88;;
13580;SDS011;6861;46.170;7.222;2023-04-06T00:32:27;4.85;;;2.70;;
13580;SDS011;6861;46.170;7.222;2023-04-06T00:34:56;3.78;;;2.60;;
13580;SDS011;6861;46.170;7.222;2023-04-06T00:37:25;3.58;;;2.38;;
13580;SDS011;6861;46.170;7.222;2023-04-06T00:39:54;3.45;;;2.42;;
13580;SDS011;6861;46.170;7.222;2023-04-06T00:42:22;2.87;;;2.03;;
13580;SDS011;6861;46.170;7.222;2023-04-06T00:44:52;2.42;;;1.90;;
13580;SDS011;6861;46.170;7.222;2023-04-06T00:47:21;6.53;;;2.50;;
13580;SDS011;6861;46.170;7.222;2023-04-06T00:49:51;3.10;;;2.30;;
13580;SDS011;6861;46.170;7.222;2023-04-06T00:52:22;2.58;;;2.10;;
13580;SDS011;6861;46.170;7.222;2023-04-06T00:54:50;3.88;;;2.47;;
13580;SDS011;6861;46.170;7.222;2023-04-06T00:57:19;2.80;;;1.92;;
13580;SDS011;6861;46.170;7.222;2023-04-06T00:59:47;2.97;;;2.30;;
13580;SDS011;6861;46.170;7.222;2023-04-06T01:02:16;3.28;;;2.13;;
13580;SDS011;6861;46.170;7.222;2023-04-06T01:04:45;3.28;;;2.45;;
13580;SDS011;6861;46.170;7.222;2023-04-06T01:07:13;4.30;;;2.60;;
13580;SDS011;6861;46.170;7.222;2023-04-06T01:09:43;3.33;;;2.40;;
13580;SDS011;6861;46.170;7.222;2023-04-06T01:12:11;4.80;;;2.92;;
13580;SDS011;6861;46.170;7.222;2023-04-06T01:14:39;5.03;;;3.63;;
13580;SDS011;6861;46.170;7.222;2023-04-06T01:17:08;4.00;;;3.43;;
13580;SDS011;6861;46.170;7.222;2023-04-06T01:19:37;7.87;;;3.40;;
13580;SDS011;6861;46.170;7.222;2023-04-06T01:22:06;4.82;;;3.00;;
13580;SDS011;6861;46.170;7.222;2023-04-06T01:24:36;3.67;;;2.73;;
13580;SDS011;6861;46.170;7.222;2023-04-06T01:27:04;3.33;;;2.60;;
13580;SDS011;6861;46.170;7.222;2023-04-06T01:29:32;5.30;;;2.77;;
13580;SDS011;6861;46.170;7.222;2023-04-06T01:32:01;4.07;;;3.33;;
13580;SDS011;6861;46.170;7.222;2023-04-06T01:34:29;4.40;;;3.00;;
13580;SDS011;6861;46.170;7.222;2023-04-06T01:36:58;5.73;;;2.97;;
13580;SDS011;6861;46.170;7.222;2023-04-06T01:39:26;4.57;;;2.60;;
13580;SDS011;6861;46.170;7.222;2023-04-06T01:41:56;5.28;;;3.33;;
13580;SDS011;6861;46.170;7.222;2023-04-06T01:44:24;4.50;;;3.00;;
13580;SDS011;6861;46.170;7.222;2023-04-06T01:46:53;3.45;;;2.88;;
13580;SDS011;6861;46.170;7.222;2023-04-06T01:49:22;4.75;;;2.58;;
13580;SDS011;6861;46.170;7.222;2023-04-06T01:51:51;3.80;;;3.13;;
13580;SDS011;6861;46.170;7.222;2023-04-06T01:54:20;3.80;;;2.73;;
13580;SDS011;6861;46.170;7.222;2023-04-06T01:56:49;4.50;;;2.97;;
13580;SDS011;6861;46.170;7.222;2023-04-06T01:59:20;5.00;;;3.03;;
13580;SDS011;6861;46.170;7.222;2023-04-06T02:01:48;4.37;;;3.03;;
13580;SDS011;6861;46.170;7.222;2023-04-06T02:04:17;4.13;;;2.93;;
13580;SDS011;6861;46.170;7.222;2023-04-06T02:06:45;3.37;;;2.80;;
13580;SDS011;6861;46.170;7.222;2023-04-06T02:09:14;3.67;;;3.10;;
13580;SDS011;6861;46.170;7.222;2023-04-06T02:11:42;4.50;;;2.90;;
13580;SDS011;6861;46.170;7.222;2023-04-06T02:14:10;3.23;;;2.70;;
13580;SDS011;6861;46.170;7.222;2023-04-06T02:16:40;3.85;;;2.38;;
13580;SDS011;6861;46.170;7.222;2023-04-06T02:19:08;2.90;;;2.47;;
13580;SDS011;6861;46.170;7.222;2023-04-06T02:21:37;2.88;;;2.28;;
13580;SDS011;6861;46.170;7.222;2023-04-06T02:24:05;2.90;;;2.23;;
13580;SDS011;6861;46.170;7.222;2023-04-06T02:26:34;4.33;;;2.67;;
13580;SDS011;6861;46.170;7.222;2023-04-06T02:29:02;3.30;;;2.10;;
13580;SDS011;6861;46.170;7.222;2023-04-06T02:31:31;3.40;;;2.33;;
13580;SDS011;6861;46.170;7.222;2023-04-06T02:34:01;3.00;;;2.40;;
13580;SDS011;6861;46.170;7.222;2023-04-06T02:36:29;2.90;;;2.20;;
13580;SDS011;6861;46.170;7.222;2023-04-06T02:38:57;2.93;;;2.60;;
13580;SDS011;6861;46.170;7.222;2023-04-06T02:41:26;3.33;;;2.53;;
13580;SDS011;6861;46.170;7.222;2023-04-06T02:43:54;4.07;;;2.43;;
13580;SDS011;6861;46.170;7.222;2023-04-06T02:46:22;3.53;;;2.87;;
13580;SDS011;6861;46.170;7.222;2023-04-06T02:48:51;5.63;;;3.50;;
13580;SDS011;6861;46.170;7.222;2023-04-06T02:51:21;5.87;;;4.67;;
13580;SDS011;6861;46.170;7.222;2023-04-06T02:53:49;5.87;;;3.83;;
13580;SDS011;6861;46.170;7.222;2023-04-06T02:56:17;10.43;;;4.60;;
13580;SDS011;6861;46.170;7.222;2023-04-06T02:58:46;7.72;;;4.55;;
13580;SDS011;6861;46.170;7.222;2023-04-06T03:01:15;6.03;;;3.73;;
13580;SDS011;6861;46.170;7.222;2023-04-06T03:03:43;6.03;;;4.50;;
13580;SDS011;6861;46.170;7.222;2023-04-06T03:06:12;5.47;;;4.27;;
13580;SDS011;6861;46.170;7.222;2023-04-06T03:08:41;4.53;;;3.90;;
13580;SDS011;6861;46.170;7.222;2023-04-06T03:11:10;6.53;;;3.67;;
13580;SDS011;6861;46.170;7.222;2023-04-06T03:13:38;5.87;;;3.90;;
13580;SDS011;6861;46.170;7.222;2023-04-06T03:16:07;8.17;;;4.70;;
13580;SDS011;6861;46.170;7.222;2023-04-06T03:18:35;5.93;;;4.20;;
13580;SDS011;6861;46.170;7.222;2023-04-06T03:21:04;5.90;;;4.57;;
13580;SDS011;6861;46.170;7.222;2023-04-06T03:23:32;10.10;;;4.47;;
13580;SDS011;6861;46.170;7.222;2023-04-06T03:26:02;9.57;;;4.97;;
13580;SDS011;6861;46.170;7.222;2023-04-06T03:28:31;7.17;;;4.73;;
13580;SDS011;6861;46.170;7.222;2023-04-06T03:30:59;10.17;;;5.87;;
13580;SDS011;6861;46.170;7.222;2023-04-06T03:33:28;6.80;;;6.10;;
13580;SDS011;6861;46.170;7.222;2023-04-06T03:35:56;9.13;;;5.43;;
13580;SDS011;6861;46.170;7.222;2023-04-06T03:38:24;6.33;;;4.43;;
13580;SDS011;6861;46.170;7.222;2023-04-06T03:40:52;9.37;;;6.03;;
13580;SDS011;6861;46.170;7.222;2023-04-06T03:43:22;10.37;;;6.23;;
13580;SDS011;6861;46.170;7.222;2023-04-06T03:45:51;8.07;;;5.70;;
13580;SDS011;6861;46.170;7.222;2023-04-06T03:48:19;10.00;;;4.60;;
13580;SDS011;6861;46.170;7.222;2023-04-06T03:50:48;5.70;;;3.97;;
13580;SDS011;6861;46.170;7.222;2023-04-06T03:53:16;9.40;;;4.63;;
13580;SDS011;6861;46.170;7.222;2023-04-06T03:55:44;7.87;;;4.77;;
13580;SDS011;6861;46.170;7.222;2023-04-06T03:58:13;7.67;;;6.30;;
13580;SDS011;6861;46.170;7.222;2023-04-06T04:00:43;9.73;;;6.17;;
13580;SDS011;6861;46.170;7.222;2023-04-06T04:03:11;8.23;;;6.27;;
13580;SDS011;6861;46.170;7.222;2023-04-06T04:05:39;11.93;;;7.67;;
13580;SDS011;6861;46.170;7.222;2023-04-06T04:08:08;13.80;;;8.70;;
13580;SDS011;6861;46.170;7.222;2023-04-06T04:10:36;15.97;;;10.37;;
13580;SDS011;6861;46.170;7.222;2023-04-06T04:13:05;15.43;;;10.60;;
13580;SDS011;6861;46.170;7.222;2023-04-06T04:15:33;9.00;;;7.67;;
13580;SDS011;6861;46.170;7.222;2023-04-06T04:18:03;13.80;;;8.73;;
13580;SDS011;6861;46.170;7.222;2023-04-06T04:20:31;13.97;;;9.60;;
13580;SDS011;6861;46.170;7.222;2023-04-06T04:23:00;18.97;;;9.03;;
13580;SDS011;6861;46.170;7.222;2023-04-06T04:25:28;17.13;;;9.07;;
13580;SDS011;6861;46.170;7.222;2023-04-06T04:27:57;29.93;;;19.00;;
13580;SDS011;6861;46.170;7.222;2023-04-06T04:30:25;37.07;;;25.30;;
13580;SDS011;6861;46.170;7.222;2023-04-06T04:32:53;49.20;;;35.97;;
13580;SDS011;6861;46.170;7.222;2023-04-06T04:35:23;36.10;;;23.83;;
13580;SDS011;6861;46.170;7.222;2023-04-06T04:37:52;36.00;;;24.70;;
13580;SDS011;6861;46.170;7.222;2023-04-06T04:40:20;22.47;;;16.10;;
13580;SDS011;6861;46.170;7.222;2023-04-06T04:42:49;16.20;;;13.50;;
13580;SDS011;6861;46.170;7.222;2023-04-06T04:45:18;12.37;;;9.27;;
13580;SDS011;6861;46.170;7.222;2023-04-06T04:47:47;14.07;;;7.93;;
13580;SDS011;6861;46.170;7.222;2023-04-06T04:50:15;15.67;;;8.87;;
13580;SDS011;6861;46.170;7.222;2023-04-06T04:52:45;15.03;;;9.27;;
13580;SDS011;6861;46.170;7.222;2023-04-06T04:55:14;8.77;;;6.67;;
13580;SDS011;6861;46.170;7.222;2023-04-06T04:57:42;9.33;;;7.00;;
13580;SDS011;6861;46.170;7.222;2023-04-06T05:00:11;11.00;;;6.97;;
13580;SDS011;6861;46.170;7.222;2023-04-06T05:02:40;8.30;;;6.47;;
13580;SDS011;6861;46.170;7.222;2023-04-06T05:05:08;14.03;;;8.80;;
13580;SDS011;6861;46.170;7.222;2023-04-06T05:07:37;16.13;;;10.70;;
13580;SDS011;6861;46.170;7.222;2023-04-06T05:10:07;19.03;;;13.33;;
13580;SDS011;6861;46.170;7.222;2023-04-06T05:12:36;15.27;;;10.73;;
13580;SDS011;6861;46.170;7.222;2023-04-06T05:15:05;12.97;;;9.20;;
13580;SDS011;6861;46.170;7.222;2023-04-06T05:17:34;14.10;;;9.10;;
13580;SDS011;6861;46.170;7.222;2023-04-06T05:20:03;14.73;;;9.80;;
13580;SDS011;6861;46.170;7.222;2023-04-06T05:22:32;15.70;;;8.50;;
13580;SDS011;6861;46.170;7.222;2023-04-06T05:25:01;11.23;;;9.50;;
13580;SDS011;6861;46.170;7.222;2023-04-06T05:27:31;17.73;;;10.70;;
13580;SDS011;6861;46.170;7.222;2023-04-06T05:29:59;15.20;;;10.20;;
13580;SDS011;6861;46.170;7.222;2023-04-06T05:32:28;16.17;;;9.70;;
13580;SDS011;6861;46.170;7.222;2023-04-06T05:34:56;11.23;;;8.40;;
13580;SDS011;6861;46.170;7.222;2023-04-06T05:37:24;18.33;;;9.27;;
13580;SDS011;6861;46.170;7.222;2023-04-06T05:39:53;11.83;;;9.60;;
13580;SDS011;6861;46.170;7.222;2023-04-06T05:42:22;14.93;;;9.80;;
13580;SDS011;6861;46.170;7.222;2023-04-06T05:44:51;16.77;;;9.40;;
13580;SDS011;6861;46.170;7.222;2023-04-06T05:47:20;16.90;;;10.47;;
13580;SDS011;6861;46.170;7.222;2023-04-06T05:49:48;22.47;;;11.67;;
13580;SDS011;6861;46.170;7.222;2023-04-06T05:52:17;13.17;;;10.37;;
13580;SDS011;6861;46.170;7.222;2023-04-06T05:54:45;14.10;;;10.00;;
13580;SDS011;6861;46.170;7.222;2023-04-06T05:57:13;14.07;;;10.07;;
13580;SDS011;6861;46.170;7.222;2023-04-06T05:59:42;17.33;;;10.37;;
13580;SDS011;6861;46.170;7.222;2023-04-06T06:02:12;17.13;;;9.70;;
13580;SDS011;6861;46.170;7.222;2023-04-06T06:04:41;24.80;;;10.20;;
13580;SDS011;6861;46.170;7.222;2023-04-06T06:07:09;15.63;;;10.90;;
13580;SDS011;6861;46.170;7.222;2023-04-06T06:09:37;21.23;;;10.10;;
13580;SDS011;6861;46.170;7.222;2023-04-06T06:12:06;13.93;;;10.40;;
13580;SDS011;6861;46.170;7.222;2023-04-06T06:14:36;17.40;;;10.13;;
13580;SDS011;6861;46.170;7.222;2023-04-06T06:17:05;16.93;;;9.33;;
13580;SDS011;6861;46.170;7.222;2023-04-06T06:19:35;14.63;;;7.90;;
13580;SDS011;6861;46.170;7.222;2023-04-06T06:22:03;11.50;;;7.37;;
13580;SDS011;6861;46.170;7.222;2023-04-06T06:24:32;10.07;;;6.10;;
13580;SDS011;6861;46.170;7.222;2023-04-06T06:27:01;10.00;;;5.90;;
13580;SDS011;6861;46.170;7.222;2023-04-06T06:29:29;6.83;;;5.23;;
13580;SDS011;6861;46.170;7.222;2023-04-06T06:31:58;6.80;;;4.83;;
13580;SDS011;6861;46.170;7.222;2023-04-06T06:34:26;7.63;;;4.70;;
13580;SDS011;6861;46.170;7.222;2023-04-06T06:36:56;8.53;;;5.70;;
13580;SDS011;6861;46.170;7.222;2023-04-06T06:39:25;8.43;;;6.63;;
13580;SDS011;6861;46.170;7.222;2023-04-06T06:41:54;11.60;;;7.20;;
13580;SDS011;6861;46.170;7.222;2023-04-06T06:44:23;19.57;;;8.40;;
13580;SDS011;6861;46.170;7.222;2023-04-06T06:46:51;11.67;;;7.97;;
13580;SDS011;6861;46.170;7.222;2023-04-06T06:49:20;30.93;;;16.33;;
13580;SDS011;6861;46.170;7.222;2023-04-06T06:51:48;21.93;;;13.07;;
13580;SDS011;6861;46.170;7.222;2023-04-06T06:54:18;13.57;;;11.13;;
13580;SDS011;6861;46.170;7.222;2023-04-06T06:56:49;16.17;;;9.63;;
13580;SDS011;6861;46.170;7.222;2023-04-06T06:59:17;17.57;;;10.40;;
13580;SDS011;6861;46.170;7.222;2023-04-06T07:01:47;13.70;;;9.30;;
13580;SDS011;6861;46.170;7.222;2023-04-06T07:04:15;16.40;;;8.83;;
13580;SDS011;6861;46.170;7.222;2023-04-06T07:06:43;12.43;;;8.07;;
13580;SDS011;6861;46.170;7.222;2023-04-06T07:09:12;10.90;;;6.77;;
13580;SDS011;6861;46.170;7.222;2023-04-06T07:11:42;10.60;;;5.37;;
13580;SDS011;6861;46.170;7.222;2023-04-06T07:14:11;7.60;;;4.87;;
13580;SDS011;6861;46.170;7.222;2023-04-06T07:16:39;9.13;;;4.10;;
13580;SDS011;6861;46.170;7.222;2023-04-06T07:19:08;6.07;;;3.60;;
13580;SDS011;6861;46.170;7.222;2023-04-06T07:21:37;4.37;;;3.57;;
13580;SDS011;6861;46.170;7.222;2023-04-06T07:24:06;5.37;;;3.00;;
13580;SDS011;6861;46.170;7.222;2023-04-06T07:26:34;5.33;;;2.70;;
13580;SDS011;6861;46.170;7.222;2023-04-06T07:29:04;4.30;;;2.03;;
13580;SDS011;6861;46.170;7.222;2023-04-06T07:31:33;2.70;;;1.70;;
13580;SDS011;6861;46.170;7.222;2023-04-06T07:34:02;3.90;;;1.63;;
13580;SDS011;6861;46.170;7.222;2023-04-06T07:36:31;2.42;;;1.60;;
13580;SDS011;6861;46.170;7.222;2023-04-06T07:38:59;2.40;;;1.85;;
13580;SDS011;6861;46.170;7.222;2023-04-06T07:41:27;2.83;;;2.10;;
13580;SDS011;6861;46.170;7.222;2023-04-06T07:43:56;3.17;;;2.10;;
13580;SDS011;6861;46.170;7.222;2023-04-06T07:46:25;2.50;;;2.00;;
13580;SDS011;6861;46.170;7.222;2023-04-06T07:48:56;2.30;;;1.90;;
13580;SDS011;6861;46.170;7.222;2023-04-06T07:51:25;3.25;;;2.15;;
13580;SDS011;6861;46.170;7.222;2023-04-06T07:53:53;2.22;;;1.90;;
13580;SDS011;6861;46.170;7.222;2023-04-06T07:56:21;2.10;;;1.70;;
13580;SDS011;6861;46.170;7.222;2023-04-06T07:58:50;2.67;;;2.03;;
13580;SDS011;6861;46.170;7.222;2023-04-06T08:01:19;2.22;;;1.90;;
13580;SDS011;6861;46.170;7.222;2023-04-06T08:03:49;2.90;;;2.20;;
13580;SDS011;6861;46.170;7.222;2023-04-06T08:06:18;3.30;;;1.90;;
13580;SDS011;6861;46.170;7.222;2023-04-06T08:08:46;3.30;;;2.28;;
13580;SDS011;6861;46.170;7.222;2023-04-06T08:11:14;3.08;;;1.88;;
13580;SDS011;6861;46.170;7.222;2023-04-06T08:13:43;2.83;;;2.00;;
13580;SDS011;6861;46.170;7.222;2023-04-06T08:16:11;2.72;;;1.90;;
13580;SDS011;6861;46.170;7.222;2023-04-06T08:18:40;2.78;;;2.08;;
13580;SDS011;6861;46.170;7.222;2023-04-06T08:21:09;3.00;;;1.83;;
13580;SDS011;6861;46.170;7.222;2023-04-06T08:23:38;2.83;;;2.10;;
13580;SDS011;6861;46.170;7.222;2023-04-06T08:26:06;2.70;;;2.20;;
13580;SDS011;6861;46.170;7.222;2023-04-06T08:28:35;4.05;;;2.20;;
13580;SDS011;6861;46.170;7.222;2023-04-06T08:31:04;3.88;;;2.20;;
13580;SDS011;6861;46.170;7.222;2023-04-06T08:33:33;1.67;;;1.58;;
13580;SDS011;6861;46.170;7.222;2023-04-06T08:36:06;2.28;;;1.85;;
13580;SDS011;6861;46.170;7.222;2023-04-06T08:38:37;3.60;;;2.15;;
13580;SDS011;6861;46.170;7.222;2023-04-06T08:41:07;2.25;;;1.83;;
13580;SDS011;6861;46.170;7.222;2023-04-06T08:43:38;2.30;;;2.00;;
13580;SDS011;6861;46.170;7.222;2023-04-06T08:46:10;2.38;;;1.83;;
13580;SDS011;6861;46.170;7.222;2023-04-06T08:48:39;3.25;;;1.90;;
13580;SDS011;6861;46.170;7.222;2023-04-06T08:51:09;2.85;;;2.10;;
13580;SDS011;6861;46.170;7.222;2023-04-06T08:53:39;2.40;;;1.90;;
13580;SDS011;6861;46.170;7.222;2023-04-06T08:56:09;2.75;;;1.85;;
13580;SDS011;6861;46.170;7.222;2023-04-06T08:58:38;3.00;;;2.00;;
13580;SDS011;6861;46.170;7.222;2023-04-06T09:01:08;2.90;;;2.10;;
13580;SDS011;6861;46.170;7.222;2023-04-06T09:03:39;2.88;;;2.58;;
13580;SDS011;6861;46.170;7.222;2023-04-06T09:06:08;3.42;;;3.13;;
13580;SDS011;6861;46.170;7.222;2023-04-06T09:08:40;3.08;;;2.58;;
13580;SDS011;6861;46.170;7.222;2023-04-06T09:11:08;4.55;;;3.55;;
13580;SDS011;6861;46.170;7.222;2023-04-06T09:13:47;3.05;;;2.38;;
13580;SDS011;6861;46.170;7.222;2023-04-06T09:16:17;3.85;;;1.98;;
13580;SDS011;6861;46.170;7.222;2023-04-06T09:18:46;2.45;;;2.10;;
13580;SDS011;6861;46.170;7.222;2023-04-06T09:21:16;3.35;;;1.88;;
13580;SDS011;6861;46.170;7.222;2023-04-06T09:23:59;3.05;;;2.08;;
13580;SDS011;6861;46.170;7.222;2023-04-06T09:26:28;2.38;;;1.98;;
13580;SDS011;6861;46.170;7.222;2023-04-06T09:29:00;2.60;;;1.90;;
13580;SDS011;6861;46.170;7.222;2023-04-06T09:31:30;2.03;;;1.85;;
13580;SDS011;6861;46.170;7.222;2023-04-06T09:34:00;1.98;;;1.77;;
13580;SDS011;6861;46.170;7.222;2023-04-06T09:36:31;2.00;;;1.90;;
13580;SDS011;6861;46.170;7.222;2023-04-06T09:39:02;2.78;;;2.10;;
13580;SDS011;6861;46.170;7.222;2023-04-06T09:41:31;4.07;;;2.05;;
13580;SDS011;6861;46.170;7.222;2023-04-06T09:44:02;3.17;;;2.10;;
13580;SDS011;6861;46.170;7.222;2023-04-06T09:46:32;1.90;;;1.73;;
13580;SDS011;6861;46.170;7.222;2023-04-06T09:49:21;3.05;;;2.30;;
13580;SDS011;6861;46.170;7.222;2023-04-06T09:51:53;2.67;;;2.20;;
13580;SDS011;6861;46.170;7.222;2023-04-06T09:54:25;3.80;;;2.53;;
13580;SDS011;6861;46.170;7.222;2023-04-06T09:56:56;2.65;;;2.45;;
13580;SDS011;6861;46.170;7.222;2023-04-06T09:59:31;2.75;;;2.25;;
13580;SDS011;6861;46.170;7.222;2023-04-06T10:02:05;2.65;;;2.15;;
13580;SDS011;6861;46.170;7.222;2023-04-06T10:04:43;2.47;;;2.20;;
13580;SDS011;6861;46.170;7.222;2023-04-06T10:07:21;2.78;;;2.50;;
13580;SDS011;6861;46.170;7.222;2023-04-06T10:09:51;3.70;;;2.20;;
13580;SDS011;6861;46.170;7.222;2023-04-06T10:12:22;2.38;;;2.17;;
13580;SDS011;6861;46.170;7.222;2023-04-06T10:14:51;2.63;;;2.28;;
13580;SDS011;6861;46.170;7.222;2023-04-06T10:17:19;3.33;;;2.20;;
13580;SDS011;6861;46.170;7.222;2023-04-06T10:19:52;2.22;;;2.03;;
13580;SDS011;6861;46.170;7.222;2023-04-06T10:22:24;2.30;;;2.10;;
13580;SDS011;6861;46.170;7.222;2023-04-06T10:25:04;2.30;;;2.10;;
13580;SDS011;6861;46.170;7.222;2023-04-06T10:27:33;3.33;;;2.42;;
13580;SDS011;6861;46.170;7.222;2023-04-06T10:30:02;2.47;;;2.28;;
13580;SDS011;6861;46.170;7.222;2023-04-06T10:32:32;2.90;;;2.20;;
13580;SDS011;6861;46.170;7.222;2023-04-06T10:35:08;3.15;;;2.58;;
13580;SDS011;6861;46.170;7.222;2023-04-06T10:37:48;3.78;;;2.47;;
13580;SDS011;6861;46.170;7.222;2023-04-06T10:40:20;7.35;;;2.83;;
13580;SDS011;6861;46.170;7.222;2023-04-06T10:42:50;2.85;;;2.53;;
13580;SDS011;6861;46.170;7.222;2023-04-06T10:45:20;3.33;;;2.65;;
13580;SDS011;6861;46.170;7.222;2023-04-06T10:47:50;3.13;;;2.55;;
13580;SDS011;6861;46.170;7.222;2023-04-06T10:50:21;3.38;;;2.50;;
13580;SDS011;6861;46.170;7.222;2023-04-06T10:52:58;3.38;;;2.40;;
13580;SDS011;6861;46.170;7.222;2023-04-06T10:55:29;2.80;;;2.50;;
13580;SDS011;6861;46.170;7.222;2023-04-06T10:57:58;3.33;;;3.03;;
13580;SDS011;6861;46.170;7.222;2023-04-06T11:00:26;4.85;;;2.55;;
13580;SDS011;6861;46.170;7.222;2023-04-06T11:03:08;2.30;;;2.10;;
13580;SDS011;6861;46.170;7.222;2023-04-06T11:05:37;3.25;;;2.95;;
13580;SDS011;6861;46.170;7.222;2023-04-06T11:08:05;3.08;;;2.53;;
13580;SDS011;6861;46.170;7.222;2023-04-06T11:10:36;3.15;;;2.55;;
13580;SDS011;6861;46.170;7.222;2023-04-06T11:13:04;3.15;;;2.60;;
13580;SDS011;6861;46.170;7.222;2023-04-06T11:15:34;5.00;;;2.80;;
13580;SDS011;6861;46.170;7.222;2023-04-06T11:18:04;4.10;;;2.47;;
13580;SDS011;6861;46.170;7.222;2023-04-06T11:20:33;3.38;;;2.53;;
13580;SDS011;6861;46.170;7.222;2023-04-06T11:23:01;3.50;;;2.72;;
13580;SDS011;6861;46.170;7.222;2023-04-06T11:25:30;4.03;;;2.67;;
13580;SDS011;6861;46.170;7.222;2023-04-06T11:28:00;3.10;;;2.80;;
13580;SDS011;6861;46.170;7.222;2023-04-06T11:30:28;3.58;;;3.25;;
13580;SDS011;6861;46.170;7.222;2023-04-06T11:33:00;3.40;;;3.10;;
13580;SDS011;6861;46.170;7.222;2023-04-06T11:35:30;3.00;;;2.70;;
13580;SDS011;6861;46.170;7.222;2023-04-06T11:38:02;3.78;;;2.95;;
13580;SDS011;6861;46.170;7.222;2023-04-06T11:40:31;4.30;;;2.83;;
13580;SDS011;6861;46.170;7.222;2023-04-06T11:43:01;5.45;;;2.80;;
13580;SDS011;6861;46.170;7.222;2023-04-06T11:45:39;3.10;;;2.60;;
13580;SDS011;6861;46.170;7.222;2023-04-06T11:48:17;4.15;;;2.90;;
13580;SDS011;6861;46.170;7.222;2023-04-06T11:50:48;4.45;;;2.67;;
13580;SDS011;6861;46.170;7.222;2023-04-06T11:53:16;3.00;;;2.47;;
13580;SDS011;6861;46.170;7.222;2023-04-06T11:55:44;3.20;;;2.83;;
13580;SDS011;6861;46.170;7.222;2023-04-06T11:58:15;7.80;;;2.88;;
13580;SDS011;6861;46.170;7.222;2023-04-06T12:00:43;5.65;;;2.72;;
13580;SDS011;6861;46.170;7.222;2023-04-06T12:03:13;5.53;;;2.60;;
13580;SDS011;6861;46.170;7.222;2023-04-06T12:05:42;3.88;;;2.83;;
13580;SDS011;6861;46.170;7.222;2023-04-06T12:08:11;5.95;;;3.17;;
13580;SDS011;6861;46.170;7.222;2023-04-06T12:10:40;3.75;;;3.03;;
13580;SDS011;6861;46.170;7.222;2023-04-06T12:13:08;3.65;;;3.00;;
13580;SDS011;6861;46.170;7.222;2023-04-06T12:15:38;5.85;;;3.28;;
13580;SDS011;6861;46.170;7.222;2023-04-06T12:18:06;4.05;;;2.80;;
13580;SDS011;6861;46.170;7.222;2023-04-06T12:20:34;5.25;;;3.22;;
13580;SDS011;6861;46.170;7.222;2023-04-06T12:23:03;6.00;;;3.10;;
13580;SDS011;6861;46.170;7.222;2023-04-06T12:25:31;3.70;;;2.83;;
13580;SDS011;6861;46.170;7.222;2023-04-06T12:28:01;4.30;;;3.00;;
13580;SDS011;6861;46.170;7.222;2023-04-06T12:30:29;6.97;;;2.92;;
13580;SDS011;6861;46.170;7.222;2023-04-06T12:33:00;8.25;;;3.28;;
13580;SDS011;6861;46.170;7.222;2023-04-06T12:35:28;5.20;;;3.30;;
13580;SDS011;6861;46.170;7.222;2023-04-06T12:37:56;5.30;;;3.38;;
13580;SDS011;6861;46.170;7.222;2023-04-06T12:40:25;3.92;;;3.08;;
13580;SDS011;6861;46.170;7.222;2023-04-06T12:42:53;3.72;;;3.00;;
13580;SDS011;6861;46.170;7.222;2023-04-06T12:45:21;6.18;;;3.10;;
13580;SDS011;6861;46.170;7.222;2023-04-06T12:47:50;4.18;;;3.30;;
13580;SDS011;6861;46.170;7.222;2023-04-06T12:50:20;5.60;;;3.17;;
13580;SDS011;6861;46.170;7.222;2023-04-06T12:52:48;5.47;;;3.63;;
13580;SDS011;6861;46.170;7.222;2023-04-06T12:55:17;3.65;;;3.20;;
13580;SDS011;6861;46.170;7.222;2023-04-06T12:57:45;3.95;;;3.05;;
13580;SDS011;6861;46.170;7.222;2023-04-06T13:00:14;3.55;;;3.05;;
13580;SDS011;6861;46.170;7.222;2023-04-06T13:02:43;3.85;;;3.15;;
13580;SDS011;6861;46.170;7.222;2023-04-06T13:05:13;4.25;;;3.17;;
13580;SDS011;6861;46.170;7.222;2023-04-06T13:07:46;5.10;;;2.92;;
13580;SDS011;6861;46.170;7.222;2023-04-06T13:10:15;3.55;;;3.03;;
13580;SDS011;6861;46.170;7.222;2023-04-06T13:12:43;5.47;;;2.95;;
13580;SDS011;6861;46.170;7.222;2023-04-06T13:15:12;7.40;;;2.53;;
13580;SDS011;6861;46.170;7.222;2023-04-06T13:17:40;5.22;;;2.60;;
13580;SDS011;6861;46.170;7.222;2023-04-06T13:20:09;2.83;;;2.30;;
13580;SDS011;6861;46.170;7.222;2023-04-06T13:22:37;8.88;;;2.78;;
13580;SDS011;6861;46.170;7.222;2023-04-06T13:25:07;4.68;;;2.63;;
13580;SDS011;6861;46.170;7.222;2023-04-06T13:27:36;4.35;;;2.50;;
13580;SDS011;6861;46.170;7.222;2023-04-06T13:30:05;4.25;;;2.67;;
13580;SDS011;6861;46.170;7.222;2023-04-06T13:32:34;3.45;;;2.50;;
13580;SDS011;6861;46.170;7.222;2023-04-06T13:35:03;5.40;;;2.67;;
13580;SDS011;6861;46.170;7.222;2023-04-06T13:37:32;5.45;;;3.20;;
13580;SDS011;6861;46.170;7.222;2023-04-06T13:40:01;5.53;;;2.97;;
13580;SDS011;6861;46.170;7.222;2023-04-06T13:42:32;3.92;;;2.40;;
13580;SDS011;6861;46.170;7.222;2023-04-06T13:45:01;3.67;;;2.60;;
13580;SDS011;6861;46.170;7.222;2023-04-06T13:47:30;3.95;;;2.40;;
13580;SDS011;6861;46.170;7.222;2023-04-06T13:49:59;2.80;;;2.40;;
13580;SDS011;6861;46.170;7.222;2023-04-06T13:52:27;3.33;;;2.50;;
13580;SDS011;6861;46.170;7.222;2023-04-06T13:54:56;4.47;;;2.90;;
13580;SDS011;6861;46.170;7.222;2023-04-06T13:57:24;3.13;;;2.20;;
13580;SDS011;6861;46.170;7.222;2023-04-06T13:59:54;4.38;;;2.65;;
13580;SDS011;6861;46.170;7.222;2023-04-06T14:02:23;3.38;;;2.28;;
13580;SDS011;6861;46.170;7.222;2023-04-06T14:04:57;3.42;;;2.28;;
13580;SDS011;6861;46.170;7.222;2023-04-06T14:07:26;4.15;;;2.42;;
13580;SDS011;6861;46.170;7.222;2023-04-06T14:09:55;2.63;;;2.10;;
13580;SDS011;6861;46.170;7.222;2023-04-06T14:12:24;2.40;;;2.17;;
13580;SDS011;6861;46.170;7.222;2023-04-06T14:14:55;2.97;;;2.10;;
13580;SDS011;6861;46.170;7.222;2023-04-06T14:17:24;4.40;;;1.60;;
13580;SDS011;6861;46.170;7.222;2023-04-06T14:19:52;2.17;;;1.50;;
13580;SDS011;6861;46.170;7.222;2023-04-06T14:22:21;2.78;;;1.50;;
13580;SDS011;6861;46.170;7.222;2023-04-06T14:24:49;2.40;;;1.65;;
13580;SDS011;6861;46.170;7.222;2023-04-06T14:27:18;2.22;;;1.67;;
13580;SDS011;6861;46.170;7.222;2023-04-06T14:29:46;3.00;;;1.58;;
13580;SDS011;6861;46.170;7.222;2023-04-06T14:32:16;4.38;;;1.70;;
13580;SDS011;6861;46.170;7.222;2023-04-06T14:34:45;1.77;;;1.50;;
13580;SDS011;6861;46.170;7.222;2023-04-06T14:37:14;3.45;;;1.40;;
13580;SDS011;6861;46.170;7.222;2023-04-06T14:39:44;4.90;;;1.50;;
13580;SDS011;6861;46.170;7.222;2023-04-06T14:42:12;3.90;;;1.60;;
13580;SDS011;6861;46.170;7.222;2023-04-06T14:44:40;2.47;;;1.27;;
13580;SDS011;6861;46.170;7.222;2023-04-06T14:47:09;2.58;;;1.40;;
13580;SDS011;6861;46.170;7.222;2023-04-06T14:49:39;2.20;;;1.40;;
13580;SDS011;6861;46.170;7.222;2023-04-06T14:52:07;1.67;;;1.33;;
13580;SDS011;6861;46.170;7.222;2023-04-06T14:54:36;1.52;;;1.40;;
13580;SDS011;6861;46.170;7.222;2023-04-06T14:57:05;1.83;;;1.27;;
13580;SDS011;6861;46.170;7.222;2023-04-06T14:59:33;2.92;;;1.40;;
13580;SDS011;6861;46.170;7.222;2023-04-06T15:02:05;2.20;;;1.30;;
13580;SDS011;6861;46.170;7.222;2023-04-06T15:04:34;1.65;;;1.40;;
13580;SDS011;6861;46.170;7.222;2023-04-06T15:07:05;1.92;;;1.40;;
13580;SDS011;6861;46.170;7.222;2023-04-06T15:09:35;2.20;;;1.40;;